Time;durP1;ratioP1;P1;durP2;ratioP2;P2;SDS_P1;SDS_P2;PMS_P1;PMS_P2;Temp;Humidity;BMP_temperature;BMP_pressure;BME280_temperature;BME280_humidity;BME280_pressure;Samples;Min_cycle;Max_cycle;Signal;HPM_P1;HPM_P2
2022/03/07 00:00:12;;;;;;;10.40;5.97;;;;;;;;;;5035253;28;20061;-70
2022/03/07 00:02:39;;;;;;;10.00;6.32;;;;;;;;;;5053067;28;20040;-67
2022/03/07 00:05:05;;;;;;;14.07;7.40;;;;;;;;;;5034723;28;20075;-68
2022/03/07 00:07:31;;;;;;;26.42;12.95;;;;;;;;;;5035003;28;20033;-68
2022/03/07 00:09:57;;;;;;;9.48;6.30;;;;;;;;;;5034909;28;20083;-68
2022/03/07 00:12:23;;;;;;;19.23;8.38;;;;;;;;;;5052680;28;20017;-68
2022/03/07 00:14:49;;;;;;;14.80;8.32;;;;;;;;;;5052392;28;20104;-68
2022/03/07 00:17:14;;;;;;;16.38;8.35;;;;;;;;;;5052611;28;20036;-68
2022/03/07 00:19:40;;;;;;;8.90;5.90;;;;;;;;;;5052459;28;20087;-68
2022/03/07 00:22:07;;;;;;;10.25;6.60;;;;;;;;;;5052595;28;20033;-67
2022/03/07 00:24:33;;;;;;;13.38;6.80;;;;;;;;;;5052146;28;20036;-67
2022/03/07 00:26:58;;;;;;;12.10;7.93;;;;;;;;;;5053127;28;20066;-69
2022/03/07 00:29:24;;;;;;;14.45;8.82;;;;;;;;;;5053311;28;20025;-68
2022/03/07 00:31:51;;;;;;;30.75;13.90;;;;;;;;;;5053230;28;20122;-68
2022/03/07 00:34:17;;;;;;;7.55;6.22;;;;;;;;;;5035269;28;20029;-70
2022/03/07 00:36:43;;;;;;;17.73;9.95;;;;;;;;;;5053043;28;20024;-67
2022/03/07 00:39:09;;;;;;;17.67;9.32;;;;;;;;;;5052406;28;20032;-68
2022/03/07 00:41:35;;;;;;;9.52;6.90;;;;;;;;;;5052194;28;20029;-68
2022/03/07 00:44:01;;;;;;;13.18;6.93;;;;;;;;;;5052197;28;20040;-69
2022/03/07 00:46:27;;;;;;;24.90;12.32;;;;;;;;;;5052265;28;20423;-69
2022/03/07 00:48:53;;;;;;;9.60;6.82;;;;;;;;;;5052251;28;20024;-68
2022/03/07 00:51:18;;;;;;;12.60;7.35;;;;;;;;;;5052154;28;20102;-68
2022/03/07 00:53:46;;;;;;;15.90;8.40;;;;;;;;;;5051691;28;20032;-69
2022/03/07 00:56:12;;;;;;;9.63;6.65;;;;;;;;;;5051851;28;20494;-69
2022/03/07 00:58:38;;;;;;;13.43;8.23;;;;;;;;;;5034158;28;20044;-69
2022/03/07 01:01:04;;;;;;;13.80;7.05;;;;;;;;;;5051877;28;20025;-69
2022/03/07 01:03:30;;;;;;;10.70;6.82;;;;;;;;;;5050845;28;20479;-69
2022/03/07 01:05:56;;;;;;;8.13;6.00;;;;;;;;;;5051687;28;20036;-69
2022/03/07 01:08:22;;;;;;;12.65;6.63;;;;;;;;;;5051780;28;20532;-71
2022/03/07 01:10:48;;;;;;;9.73;5.88;;;;;;;;;;5051640;28;20033;-68
2022/03/07 01:13:15;;;;;;;9.57;7.25;;;;;;;;;;5051462;28;20102;-69
2022/03/07 01:15:41;;;;;;;19.42;9.55;;;;;;;;;;5051832;28;20052;-69
2022/03/07 01:18:07;;;;;;;9.95;7.38;;;;;;;;;;5051867;28;20041;-68
2022/03/07 01:20:33;;;;;;;10.93;6.88;;;;;;;;;;5051657;28;20398;-68
2022/03/07 01:22:59;;;;;;;13.88;8.40;;;;;;;;;;5051234;28;20490;-71
2022/03/07 01:25:25;;;;;;;9.20;6.95;;;;;;;;;;5051543;28;20439;-68
2022/03/07 01:27:51;;;;;;;11.32;6.57;;;;;;;;;;5051584;28;20483;-69
2022/03/07 01:30:17;;;;;;;10.65;7.30;;;;;;;;;;5051832;28;20036;-69
2022/03/07 01:32:43;;;;;;;8.88;6.45;;;;;;;;;;5051818;28;20025;-69
2022/03/07 01:35:09;;;;;;;9.35;6.43;;;;;;;;;;5051230;28;20032;-67
2022/03/07 01:37:35;;;;;;;11.02;6.78;;;;;;;;;;5051280;28;20025;-67
2022/03/07 01:40:01;;;;;;;11.10;7.15;;;;;;;;;;5051435;28;20509;-69
2022/03/07 01:42:27;;;;;;;8.93;6.03;;;;;;;;;;5051351;28;20083;-69
2022/03/07 01:44:53;;;;;;;10.35;6.47;;;;;;;;;;5051084;28;20032;-69
2022/03/07 01:47:19;;;;;;;12.68;7.18;;;;;;;;;;5051419;28;20399;-67
2022/03/07 01:49:45;;;;;;;9.93;6.82;;;;;;;;;;5051266;28;20060;-68
2022/03/07 01:52:12;;;;;;;11.73;6.47;;;;;;;;;;5051762;28;20025;-68
2022/03/07 01:54:39;;;;;;;12.15;6.60;;;;;;;;;;5051359;28;20490;-68
2022/03/07 01:57:04;;;;;;;9.68;5.90;;;;;;;;;;5051238;28;20078;-67
2022/03/07 01:59:33;;;;;;;10.43;6.55;;;;;;;;;;5051117;28;20029;-67
2022/03/07 02:02:00;;;;;;;10.63;6.78;;;;;;;;;;5051237;28;20033;-67
2022/03/07 02:04:26;;;;;;;11.52;6.07;;;;;;;;;;5051009;28;20036;-68
2022/03/07 02:06:52;;;;;;;9.50;6.32;;;;;;;;;;5050805;28;20049;-67
2022/03/07 02:09:18;;;;;;;10.10;6.90;;;;;;;;;;5051298;28;20033;-68
2022/03/07 02:11:44;;;;;;;14.70;8.07;;;;;;;;;;5051064;28;20108;-67
2022/03/07 02:14:24;;;;;;;15.00;8.95;;;;;;;;;;5032990;28;20475;-68
2022/03/07 02:16:50;;;;;;;11.40;6.90;;;;;;;;;;5054895;28;20243;-67
2022/03/07 02:19:17;;;;;;;19.52;7.60;;;;;;;;;;5054759;28;20032;-67
2022/03/07 02:21:44;;;;;;;10.13;7.45;;;;;;;;;;5054556;28;20095;-69
2022/03/07 02:24:10;;;;;;;9.95;6.40;;;;;;;;;;5054832;28;20087;-70
2022/03/07 02:26:36;;;;;;;11.75;7.00;;;;;;;;;;5036744;28;20044;-68
2022/03/07 02:29:03;;;;;;;13.40;7.55;;;;;;;;;;5054701;28;20104;-68
2022/03/07 02:31:32;;;;;;;29.02;11.50;;;;;;;;;;5054818;28;20453;-69
2022/03/07 02:33:58;;;;;;;14.23;8.57;;;;;;;;;;5054414;28;20021;-68
2022/03/07 02:36:24;;;;;;;13.38;7.72;;;;;;;;;;5054766;28;20021;-69
2022/03/07 02:38:50;;;;;;;13.05;7.68;;;;;;;;;;5037352;28;20104;-69
2022/03/07 02:41:16;;;;;;;11.05;7.22;;;;;;;;;;5054684;28;20112;-69
2022/03/07 02:43:42;;;;;;;10.48;7.20;;;;;;;;;;5054641;28;20060;-69
2022/03/07 02:46:08;;;;;;;21.52;11.30;;;;;;;;;;5054673;28;20079;-68
2022/03/07 02:48:34;;;;;;;12.40;7.75;;;;;;;;;;5054279;28;20025;-69
2022/03/07 02:51:00;;;;;;;11.13;6.80;;;;;;;;;;5054352;28;20032;-69
2022/03/07 02:53:26;;;;;;;13.18;8.30;;;;;;;;;;5054844;28;20033;-69
2022/03/07 02:55:52;;;;;;;16.98;9.40;;;;;;;;;;5036297;28;20025;-68
2022/03/07 02:58:18;;;;;;;13.27;8.05;;;;;;;;;;5036336;28;20037;-68
2022/03/07 03:00:44;;;;;;;15.40;8.30;;;;;;;;;;5054064;28;20036;-68
2022/03/07 03:03:10;;;;;;;14.85;8.20;;;;;;;;;;5053887;28;20493;-68
2022/03/07 03:05:36;;;;;;;12.65;7.28;;;;;;;;;;5075822;22;20128;-70
2022/03/07 03:08:02;;;;;;;17.98;9.43;;;;;;;;;;5034186;28;20025;-70
2022/03/07 03:10:28;;;;;;;13.80;8.48;;;;;;;;;;5033861;28;20428;-71
2022/03/07 03:12:54;;;;;;;12.38;7.65;;;;;;;;;;5034113;28;20109;-71
2022/03/07 03:15:20;;;;;;;10.43;6.72;;;;;;;;;;5034093;28;20045;-71
2022/03/07 03:17:46;;;;;;;10.70;7.32;;;;;;;;;;5033861;28;20112;-71
2022/03/07 03:20:14;;;;;;;11.68;6.95;;;;;;;;;;5033750;28;20035;-71
2022/03/07 03:22:41;;;;;;;16.00;7.65;;;;;;;;;;5033565;28;20112;-72
2022/03/07 03:25:08;;;;;;;11.50;7.57;;;;;;;;;;5034139;28;20434;-72
2022/03/07 03:27:34;;;;;;;13.43;8.63;;;;;;;;;;5032833;28;20025;-72
2022/03/07 03:30:00;;;;;;;16.88;8.85;;;;;;;;;;5032397;28;20033;-71
2022/03/07 03:32:26;;;;;;;13.68;7.85;;;;;;;;;;5032437;28;20034;-71
2022/03/07 03:34:53;;;;;;;8.77;6.18;;;;;;;;;;5032065;28;20032;-71
2022/03/07 03:37:18;;;;;;;11.65;6.22;;;;;;;;;;5033680;28;20160;-72
2022/03/07 03:39:44;;;;;;;9.15;6.47;;;;;;;;;;5033931;28;20076;-71
2022/03/07 03:42:10;;;;;;;10.95;6.55;;;;;;;;;;5033694;28;20036;-71
2022/03/07 03:44:36;;;;;;;11.43;6.13;;;;;;;;;;5033394;28;20112;-71
2022/03/07 03:47:02;;;;;;;9.32;5.65;;;;;;;;;;5033054;28;20176;-71
2022/03/07 03:49:30;;;;;;;10.25;6.20;;;;;;;;;;5033427;28;20278;-71
2022/03/07 03:51:56;;;;;;;7.57;5.90;;;;;;;;;;5033697;28;20117;-72
2022/03/07 03:54:22;;;;;;;7.10;5.40;;;;;;;;;;5033017;28;20053;-71
2022/03/07 03:56:48;;;;;;;9.13;5.88;;;;;;;;;;5031944;28;20028;-71
2022/03/07 03:59:14;;;;;;;7.40;5.50;;;;;;;;;;5033274;28;20017;-71
2022/03/07 04:01:44;;;;;;;7.40;5.53;;;;;;;;;;5031761;28;20484;-71
2022/03/07 04:04:10;;;;;;;10.20;5.60;;;;;;;;;;5033154;28;20057;-71
2022/03/07 04:06:36;;;;;;;11.30;5.57;;;;;;;;;;5032856;28;20464;-72
2022/03/07 04:09:05;;;;;;;9.38;6.13;;;;;;;;;;5032944;28;20104;-72
2022/03/07 04:11:31;;;;;;;8.65;5.55;;;;;;;;;;5032914;28;20508;-71
2022/03/07 04:13:57;;;;;;;8.73;5.57;;;;;;;;;;5032717;28;20022;-72
2022/03/07 04:16:23;;;;;;;7.25;5.53;;;;;;;;;;5033213;28;20022;-71
2022/03/07 04:18:49;;;;;;;9.60;6.55;;;;;;;;;;5033018;28;20029;-70
2022/03/07 04:21:15;;;;;;;9.75;5.57;;;;;;;;;;5032898;28;20029;-70
2022/03/07 04:23:41;;;;;;;9.30;5.90;;;;;;;;;;5031264;28;20029;-70
2022/03/07 04:26:07;;;;;;;8.23;5.55;;;;;;;;;;5032451;28;20026;-72
2022/03/07 04:28:33;;;;;;;7.43;5.55;;;;;;;;;;5032771;28;20025;-71
2022/03/07 04:30:59;;;;;;;9.10;5.38;;;;;;;;;;5032366;28;20026;-71
2022/03/07 04:33:25;;;;;;;11.05;5.68;;;;;;;;;;5032145;28;20029;-71
2022/03/07 04:35:51;;;;;;;11.35;5.55;;;;;;;;;;5032512;28;20022;-71
2022/03/07 04:38:17;;;;;;;11.07;6.10;;;;;;;;;;5032238;28;20027;-72
2022/03/07 04:40:44;;;;;;;9.32;5.85;;;;;;;;;;5032537;28;20025;-72
2022/03/07 04:43:10;;;;;;;8.43;5.47;;;;;;;;;;5032060;28;20487;-72
2022/03/07 04:45:35;;;;;;;8.23;5.40;;;;;;;;;;5032639;28;20033;-72
2022/03/07 04:48:02;;;;;;;9.38;5.45;;;;;;;;;;5031612;28;20495;-72
2022/03/07 04:50:27;;;;;;;10.68;5.07;;;;;;;;;;5032244;28;20072;-72
2022/03/07 04:52:53;;;;;;;8.23;5.32;;;;;;;;;;5032289;28;20499;-72
2022/03/07 04:55:20;;;;;;;7.50;5.43;;;;;;;;;;5032386;28;20492;-72
2022/03/07 04:57:46;;;;;;;9.65;5.00;;;;;;;;;;5032218;28;20024;-71
2022/03/07 05:00:12;;;;;;;9.63;5.63;;;;;;;;;;5032008;28;20033;-71
2022/03/07 05:02:38;;;;;;;9.93;4.90;;;;;;;;;;5032251;28;20044;-71
2022/03/07 05:05:04;;;;;;;8.45;5.80;;;;;;;;;;5031034;28;20120;-71
2022/03/07 05:07:30;;;;;;;9.07;5.35;;;;;;;;;;5030811;28;20041;-71
2022/03/07 05:09:56;;;;;;;7.80;5.32;;;;;;;;;;5032194;28;20487;-72
2022/03/07 05:12:22;;;;;;;8.93;5.57;;;;;;;;;;5032023;28;20399;-72
2022/03/07 05:14:48;;;;;;;10.00;5.30;;;;;;;;;;5031858;28;20022;-72
2022/03/07 05:17:14;;;;;;;8.82;4.68;;;;;;;;;;5030594;28;20025;-72
2022/03/07 05:19:40;;;;;;;9.80;5.53;;;;;;;;;;5030638;28;20164;-72
2022/03/07 05:22:08;;;;;;;10.02;5.97;;;;;;;;;;5031888;28;20033;-72
2022/03/07 05:24:34;;;;;;;9.23;5.50;;;;;;;;;;5031851;28;20101;-72
2022/03/07 05:27:00;;;;;;;15.63;7.22;;;;;;;;;;5031683;28;20080;-72
2022/03/07 05:29:26;;;;;;;7.78;5.10;;;;;;;;;;5032013;28;20029;-71
2022/03/07 05:31:52;;;;;;;6.10;4.68;;;;;;;;;;5031857;28;20013;-72
2022/03/07 05:34:18;;;;;;;8.85;5.45;;;;;;;;;;5031517;28;20104;-70
2022/03/07 05:36:44;;;;;;;6.63;4.70;;;;;;;;;;5031710;28;20447;-71
2022/03/07 05:39:10;;;;;;;7.70;5.15;;;;;;;;;;5032230;28;20087;-71
2022/03/07 05:41:37;;;;;;;8.25;5.72;;;;;;;;;;5032222;28;20113;-71
2022/03/07 05:44:03;;;;;;;10.38;5.20;;;;;;;;;;5031377;28;20041;-72
2022/03/07 05:46:29;;;;;;;8.20;5.13;;;;;;;;;;5031613;28;20025;-72
2022/03/07 05:48:57;;;;;;;9.65;5.40;;;;;;;;;;5031496;28;20041;-71
2022/03/07 05:51:24;;;;;;;7.78;5.05;;;;;;;;;;5035553;28;20025;-70
2022/03/07 05:53:50;;;;;;;9.52;5.35;;;;;;;;;;5035367;28;20513;-70
2022/03/07 05:56:16;;;;;;;8.52;5.25;;;;;;;;;;5035197;28;20037;-72
2022/03/07 05:58:42;;;;;;;14.23;5.32;;;;;;;;;;5035792;28;20025;-71
2022/03/07 06:01:08;;;;;;;11.55;6.70;;;;;;;;;;5035437;28;20220;-71
2022/03/07 06:03:34;;;;;;;8.30;5.60;;;;;;;;;;5035457;28;20070;-72
2022/03/07 06:06:00;;;;;;;13.20;6.07;;;;;;;;;;5035547;28;20384;-71
2022/03/07 06:08:26;;;;;;;11.57;6.50;;;;;;;;;;5035886;28;20036;-71
2022/03/07 06:10:52;;;;;;;13.82;6.72;;;;;;;;;;5035815;28;20029;-71
2022/03/07 06:13:19;;;;;;;11.75;6.90;;;;;;;;;;5036459;28;20483;-72
2022/03/07 06:15:45;;;;;;;13.90;6.63;;;;;;;;;;5037090;28;20123;-71
2022/03/07 06:18:11;;;;;;;12.18;7.30;;;;;;;;;;5039150;28;20487;-71
2022/03/07 06:20:37;;;;;;;12.90;6.35;;;;;;;;;;5040612;28;20029;-71
2022/03/07 06:23:04;;;;;;;11.40;6.55;;;;;;;;;;5039693;28;20064;-71
2022/03/07 06:25:30;;;;;;;9.20;4.78;;;;;;;;;;5039706;28;20029;-73
2022/03/07 06:27:56;;;;;;;9.65;4.72;;;;;;;;;;5039838;28;20033;-71
2022/03/07 06:30:22;;;;;;;8.70;5.00;;;;;;;;;;5037316;28;20036;-72
2022/03/07 06:32:48;;;;;;;9.65;4.88;;;;;;;;;;5036551;28;20032;-72
2022/03/07 06:35:14;;;;;;;10.35;4.97;;;;;;;;;;5035829;28;20108;-70
2022/03/07 06:37:50;;;;;;;9.05;5.32;;;;;;;;;;5035810;28;20029;-72
2022/03/07 06:40:16;;;;;;;11.10;6.00;;;;;;;;;;5035605;28;20033;-72
2022/03/07 06:42:43;;;;;;;12.43;6.43;;;;;;;;;;5037899;28;20021;-72
2022/03/07 06:45:15;;;;;;;14.73;5.88;;;;;;;;;;5037456;28;20035;-71
2022/03/07 06:47:42;;;;;;;11.32;6.85;;;;;;;;;;5038307;28;20025;-70
2022/03/07 06:50:08;;;;;;;8.32;5.30;;;;;;;;;;5036427;28;20390;-72
2022/03/07 06:52:34;;;;;;;9.77;4.95;;;;;;;;;;5036520;28;20025;-72
2022/03/07 06:55:00;;;;;;;12.27;5.90;;;;;;;;;;5036605;28;20017;-71
2022/03/07 06:57:26;;;;;;;10.55;5.75;;;;;;;;;;5034622;28;20045;-72
2022/03/07 06:59:52;;;;;;;8.30;5.00;;;;;;;;;;5035615;28;20030;-72
2022/03/07 07:02:18;;;;;;;8.95;5.63;;;;;;;;;;5032109;28;20029;-72
2022/03/07 07:04:45;;;;;;;9.52;5.15;;;;;;;;;;5033748;28;20025;-72
2022/03/07 07:07:11;;;;;;;10.77;5.18;;;;;;;;;;5033410;28;20029;-73
2022/03/07 07:09:37;;;;;;;7.72;5.28;;;;;;;;;;5033305;28;20021;-72
2022/03/07 07:12:03;;;;;;;12.55;5.93;;;;;;;;;;5032184;28;20025;-74
2022/03/07 07:14:30;;;;;;;15.98;7.85;;;;;;;;;;5034816;28;20026;-72
2022/03/07 07:16:56;;;;;;;34.10;15.32;;;;;;;;;;5033568;28;20036;-73
2022/03/07 07:19:22;;;;;;;24.42;12.00;;;;;;;;;;5033382;28;20104;-74
2022/03/07 07:21:48;;;;;;;13.75;6.15;;;;;;;;;;5033412;28;20436;-72
2022/03/07 07:24:14;;;;;;;33.25;14.77;;;;;;;;;;5034654;28;20053;-72
2022/03/07 07:26:40;;;;;;;28.15;13.63;;;;;;;;;;5033925;28;20022;-73
2022/03/07 07:29:06;;;;;;;102.20;39.97;;;;;;;;;;5034027;28;20033;-74
2022/03/07 07:31:32;;;;;;;63.85;25.77;;;;;;;;;;5036208;28;20021;-75
2022/03/07 07:33:58;;;;;;;18.30;8.98;;;;;;;;;;5037373;28;20024;-74
2022/03/07 07:36:24;;;;;;;13.98;8.15;;;;;;;;;;5036342;28;20060;-74
2022/03/07 07:38:50;;;;;;;51.85;23.38;;;;;;;;;;5036290;28;20018;-75
2022/03/07 07:41:16;;;;;;;18.23;9.63;;;;;;;;;;5034893;28;20384;-73
2022/03/07 07:43:42;;;;;;;13.52;6.82;;;;;;;;;;5034090;28;20168;-74
2022/03/07 07:46:08;;;;;;;27.75;12.18;;;;;;;;;;5033720;28;20048;-73
2022/03/07 07:48:34;;;;;;;27.00;11.70;;;;;;;;;;5034445;28;20475;-72
2022/03/07 07:51:00;;;;;;;21.77;10.80;;;;;;;;;;5033913;28;20115;-73
2022/03/07 07:53:26;;;;;;;16.58;8.07;;;;;;;;;;5032329;28;20025;-72
2022/03/07 07:55:52;;;;;;;17.70;9.35;;;;;;;;;;5033396;28;20476;-72
2022/03/07 07:58:18;;;;;;;28.83;12.68;;;;;;;;;;5033161;28;20022;-72
2022/03/07 08:00:44;;;;;;;68.63;28.92;;;;;;;;;;5033401;28;20083;-75
2022/03/07 08:03:10;;;;;;;57.47;24.48;;;;;;;;;;5031946;28;20112;-73
2022/03/07 08:05:36;;;;;;;50.78;22.45;;;;;;;;;;5033223;28;20095;-74
2022/03/07 08:08:02;;;;;;;59.33;25.73;;;;;;;;;;5033351;28;20029;-73
2022/03/07 08:10:28;;;;;;;50.80;21.77;;;;;;;;;;5031928;28;20517;-71
2022/03/07 08:12:54;;;;;;;18.35;9.70;;;;;;;;;;5032649;28;20018;-72
2022/03/07 08:15:20;;;;;;;25.25;12.00;;;;;;;;;;5031598;28;20364;-73
2022/03/07 08:17:49;;;;;;;46.72;21.20;;;;;;;;;;5032988;28;20117;-73
2022/03/07 08:20:16;;;;;;;18.27;8.02;;;;;;;;;;5032822;28;20573;-71
2022/03/07 08:22:42;;;;;;;20.58;9.88;;;;;;;;;;5031767;28;20032;-72
2022/03/07 08:25:09;;;;;;;34.28;14.70;;;;;;;;;;5032838;28;20071;-73
2022/03/07 08:27:35;;;;;;;43.00;19.98;;;;;;;;;;5032960;28;20480;-73
2022/03/07 08:30:01;;;;;;;67.88;31.27;;;;;;;;;;5032982;28;20120;-73
2022/03/07 08:32:27;;;;;;;38.58;19.48;;;;;;;;;;5031704;28;20025;-72
2022/03/07 08:34:55;;;;;;;42.13;20.00;;;;;;;;;;5031222;28;20109;-72
2022/03/07 08:37:21;;;;;;;47.30;22.67;;;;;;;;;;5032693;28;20025;-72
2022/03/07 08:39:47;;;;;;;37.45;17.92;;;;;;;;;;5032885;28;20041;-72
2022/03/07 08:42:13;;;;;;;28.25;13.95;;;;;;;;;;5032990;28;20108;-71
2022/03/07 08:44:39;;;;;;;46.90;22.40;;;;;;;;;;5032687;28;20021;-73
2022/03/07 08:47:05;;;;;;;45.80;22.48;;;;;;;;;;5032511;28;20026;-72
2022/03/07 08:49:30;;;;;;;11.63;7.03;;;;;;;;;;5032410;28;20479;-71
2022/03/07 08:51:56;;;;;;;19.42;9.13;;;;;;;;;;5032524;28;20075;-72
2022/03/07 08:54:23;;;;;;;35.25;16.88;;;;;;;;;;5031984;28;20052;-71
2022/03/07 08:56:49;;;;;;;40.08;21.42;;;;;;;;;;5032325;28;20419;-73
2022/03/07 08:59:15;;;;;;;49.15;24.23;;;;;;;;;;5032146;28;20025;-73
2022/03/07 09:01:41;;;;;;;21.52;9.98;;;;;;;;;;5032415;28;20121;-74
2022/03/07 09:04:07;;;;;;;18.25;9.02;;;;;;;;;;5031973;28;20491;-73
2022/03/07 09:06:34;;;;;;;27.55;13.82;;;;;;;;;;5071020;22;20492;-70
2022/03/07 09:09:00;;;;;;;30.25;12.10;;;;;;;;;;5091959;28;20469;-70
2022/03/07 09:11:26;;;;;;;74.70;31.50;;;;;;;;;;5091705;28;20024;-69
2022/03/07 09:13:53;;;;;;;51.95;22.77;;;;;;;;;;5091660;28;20393;-70
2022/03/07 09:16:19;;;;;;;20.85;10.27;;;;;;;;;;5088349;28;20024;-68
2022/03/07 09:18:45;;;;;;;60.00;26.35;;;;;;;;;;5071611;28;20161;-68
2022/03/07 09:21:11;;;;;;;36.38;14.38;;;;;;;;;;5071515;28;20037;-68
2022/03/07 09:23:39;;;;;;;61.42;26.98;;;;;;;;;;5071114;28;20036;-67
2022/03/07 09:26:06;;;;;;;30.02;12.98;;;;;;;;;;5070883;28;20552;-68
2022/03/07 09:28:33;;;;;;;55.58;24.65;;;;;;;;;;5071733;28;20108;-68
2022/03/07 09:30:59;;;;;;;114.78;52.42;;;;;;;;;;5071458;28;20031;-70
2022/03/07 09:33:25;;;;;;;135.15;60.55;;;;;;;;;;5069925;28;20052;-70
2022/03/07 09:35:51;;;;;;;65.68;29.50;;;;;;;;;;5069959;28;20063;-68
2022/03/07 09:38:17;;;;;;;52.60;23.88;;;;;;;;;;5071227;28;20029;-67
2022/03/07 09:40:43;;;;;;;40.20;18.55;;;;;;;;;;5069747;28;20031;-66
2022/03/07 09:43:09;;;;;;;58.97;26.63;;;;;;;;;;5069578;28;20025;-65
2022/03/07 09:45:35;;;;;;;69.05;31.08;;;;;;;;;;5069624;28;20484;-66
2022/03/07 09:48:01;;;;;;;14.32;7.50;;;;;;;;;;5067821;28;20055;-66
2022/03/07 09:50:28;;;;;;;31.33;15.07;;;;;;;;;;5068986;28;20025;-68
2022/03/07 09:52:56;;;;;;;72.78;32.95;;;;;;;;;;5069285;28;20029;-68
2022/03/07 09:55:23;;;;;;;59.42;27.00;;;;;;;;;;5069514;28;20482;-67
2022/03/07 09:57:49;;;;;;;37.40;16.83;;;;;;;;;;5071395;28;20032;-67
2022/03/07 10:00:16;;;;;;;30.55;14.43;;;;;;;;;;5071166;28;20028;-67
2022/03/07 10:02:52;;;;;;;12.73;6.18;;;;;;;;;;5071173;28;20052;-67
2022/03/07 10:05:18;;;;;;;18.40;9.32;;;;;;;;;;5070832;28;20477;-67
2022/03/07 10:07:44;;;;;;;24.90;10.95;;;;;;;;;;5070868;28;20032;-64
2022/03/07 10:10:10;;;;;;;49.17;20.35;;;;;;;;;;5071109;28;20056;-68
2022/03/07 10:12:47;;;;;;;34.45;15.02;;;;;;;;;;5070954;28;20020;-68
2022/03/07 10:15:14;;;;;;;46.20;21.45;;;;;;;;;;5070844;28;20040;-67
2022/03/07 10:17:41;;;;;;;44.15;19.55;;;;;;;;;;5070582;28;20086;-70
2022/03/07 10:20:07;;;;;;;71.90;32.83;;;;;;;;;;5070898;28;20052;-66
2022/03/07 10:22:34;;;;;;;9.60;5.80;;;;;;;;;;5070866;28;20029;-66
2022/03/07 10:25:01;;;;;;;32.10;13.45;;;;;;;;;;5070604;28;20056;-67
2022/03/07 10:27:40;;;;;;;37.67;15.93;;;;;;;;;;5070686;28;20024;-68
2022/03/07 10:30:10;;;;;;;40.33;17.70;;;;;;;;;;5070527;28;20029;-69
2022/03/07 10:32:36;;;;;;;29.08;13.60;;;;;;;;;;5070127;28;20387;-67
2022/03/07 10:35:02;;;;;;;35.65;15.60;;;;;;;;;;5071089;28;20020;-66
2022/03/07 10:37:46;;;;;;;20.27;10.23;;;;;;;;;;5074478;28;20092;-67
2022/03/07 10:40:19;;;;;;;72.53;30.35;;;;;;;;;;5074496;28;20115;-67
2022/03/07 10:42:46;;;;;;;16.98;8.38;;;;;;;;;;5074397;28;20074;-66
2022/03/07 10:45:12;;;;;;;62.35;27.33;;;;;;;;;;5074635;28;20096;-66
2022/03/07 10:47:39;;;;;;;25.33;11.73;;;;;;;;;;5074209;28;20505;-67
2022/03/07 10:50:06;;;;;;;38.55;16.77;;;;;;;;;;5074123;28;20028;-67
2022/03/07 10:52:38;;;;;;;25.45;12.50;;;;;;;;;;5073020;28;20020;-67
2022/03/07 10:55:05;;;;;;;58.88;26.73;;;;;;;;;;5074111;28;20021;-68
2022/03/07 10:57:34;;;;;;;32.10;15.20;;;;;;;;;;5074129;28;20066;-66
2022/03/07 11:00:04;;;;;;;41.38;19.77;;;;;;;;;;5074158;28;20040;-67
2022/03/07 11:02:37;;;;;;;43.35;20.17;;;;;;;;;;5074034;28;20055;-66
2022/03/07 11:05:03;;;;;;;31.48;14.38;;;;;;;;;;5073800;28;20035;-68
2022/03/07 11:07:31;;;;;;;8.90;4.68;;;;;;;;;;5073817;28;20111;-68
2022/03/07 11:09:57;;;;;;;26.55;11.57;;;;;;;;;;5074120;28;20107;-67
2022/03/07 11:12:24;;;;;;;33.45;13.82;;;;;;;;;;5073746;28;20462;-66
2022/03/07 11:14:50;;;;;;;11.38;6.70;;;;;;;;;;5073770;28;20042;-69
2022/03/07 11:17:18;;;;;;;28.77;14.05;;;;;;;;;;5073356;28;20025;-68
2022/03/07 11:19:46;;;;;;;9.38;5.03;;;;;;;;;;5074031;28;20039;-65
2022/03/07 11:22:12;;;;;;;52.05;23.27;;;;;;;;;;5072389;28;20483;-68
2022/03/07 11:24:39;;;;;;;22.33;9.73;;;;;;;;;;5073788;28;20054;-67
2022/03/07 11:27:06;;;;;;;15.02;7.53;;;;;;;;;;5072480;28;20115;-65
2022/03/07 11:29:33;;;;;;;11.00;6.00;;;;;;;;;;5073480;28;20065;-65
2022/03/07 11:32:03;;;;;;;43.78;17.65;;;;;;;;;;5073876;28;20024;-68
2022/03/07 11:34:29;;;;;;;39.90;18.15;;;;;;;;;;5073185;28;20371;-66
2022/03/07 11:36:55;;;;;;;24.00;12.23;;;;;;;;;;5073465;28;20146;-66
2022/03/07 11:39:31;;;;;;;19.98;10.35;;;;;;;;;;5073288;28;20480;-67
2022/03/07 11:42:07;;;;;;;25.17;12.65;;;;;;;;;;5073097;28;20052;-68
2022/03/07 11:44:33;;;;;;;24.92;10.27;;;;;;;;;;5073140;28;20020;-67
2022/03/07 11:47:07;;;;;;;17.00;8.32;;;;;;;;;;5072919;28;20073;-67
2022/03/07 11:49:33;;;;;;;16.95;7.78;;;;;;;;;;5073767;28;20111;-68
2022/03/07 11:52:00;;;;;;;34.80;15.98;;;;;;;;;;5073199;28;20094;-69
2022/03/07 11:54:26;;;;;;;22.10;9.55;;;;;;;;;;5072605;28;20433;-67
2022/03/07 11:56:52;;;;;;;29.17;13.77;;;;;;;;;;5072970;28;20020;-66
2022/03/07 11:59:28;;;;;;;17.20;9.30;;;;;;;;;;5073028;28;20059;-65
2022/03/07 12:01:54;;;;;;;19.20;8.90;;;;;;;;;;5073031;28;20021;-67
2022/03/07 12:04:21;;;;;;;14.00;7.22;;;;;;;;;;5072850;28;20037;-67
2022/03/07 12:06:54;;;;;;;17.50;9.40;;;;;;;;;;5072609;28;20561;-66
2022/03/07 12:09:27;;;;;;;22.00;10.52;;;;;;;;;;5072810;28;20028;-67
2022/03/07 12:12:00;;;;;;;33.10;16.55;;;;;;;;;;5073103;28;20024;-67
2022/03/07 12:14:30;;;;;;;30.45;14.05;;;;;;;;;;5072492;28;20048;-65
2022/03/07 12:16:56;;;;;;;13.63;6.78;;;;;;;;;;5072284;28;20046;-66
2022/03/07 12:19:22;;;;;;;16.90;8.40;;;;;;;;;;5072522;28;20027;-66
2022/03/07 12:21:49;;;;;;;21.08;8.73;;;;;;;;;;5072299;28;20111;-65
2022/03/07 12:24:16;;;;;;;19.08;10.05;;;;;;;;;;5072164;28;20029;-67
2022/03/07 12:26:43;;;;;;;23.80;10.93;;;;;;;;;;5072768;28;20063;-66
2022/03/07 12:29:09;;;;;;;14.13;6.82;;;;;;;;;;5072190;28;20032;-66
2022/03/07 12:31:35;;;;;;;10.50;5.72;;;;;;;;;;5072190;28;20032;-67
2022/03/07 12:34:01;;;;;;;11.55;6.80;;;;;;;;;;5071984;28;20467;-67
2022/03/07 12:36:27;;;;;;;18.67;7.82;;;;;;;;;;5071875;28;20025;-67
2022/03/07 12:38:54;;;;;;;17.75;9.02;;;;;;;;;;5071945;28;20016;-66
2022/03/07 12:41:27;;;;;;;11.80;5.78;;;;;;;;;;5071850;28;20024;-67
2022/03/07 12:43:53;;;;;;;17.95;8.27;;;;;;;;;;5071800;28;20032;-67
2022/03/07 12:46:20;;;;;;;32.42;14.98;;;;;;;;;;5072052;28;20494;-67
2022/03/07 12:48:46;;;;;;;20.98;11.70;;;;;;;;;;5071890;28;20017;-67
2022/03/07 12:51:14;;;;;;;9.68;5.53;;;;;;;;;;5071806;28;20071;-69
2022/03/07 12:53:47;;;;;;;25.25;13.27;;;;;;;;;;5071696;28;20574;-68
2022/03/07 12:56:14;;;;;;;19.92;9.90;;;;;;;;;;5071689;28;20020;-68
2022/03/07 12:58:57;;;;;;;17.65;9.43;;;;;;;;;;5071647;28;20020;-67
2022/03/07 13:01:24;;;;;;;13.30;5.80;;;;;;;;;;5071535;28;20097;-66
2022/03/07 13:03:52;;;;;;;24.95;12.43;;;;;;;;;;5071438;28;20029;-68
2022/03/07 13:06:18;;;;;;;26.25;13.07;;;;;;;;;;5071619;28;20398;-67
2022/03/07 13:08:45;;;;;;;15.70;8.10;;;;;;;;;;5071726;28;20027;-66
2022/03/07 13:11:12;;;;;;;22.42;11.90;;;;;;;;;;5071536;28;20029;-66
2022/03/07 13:13:50;;;;;;;17.42;8.27;;;;;;;;;;5071262;28;20404;-68
2022/03/07 13:16:29;;;;;;;13.40;6.35;;;;;;;;;;5071363;28;20049;-67
2022/03/07 13:18:58;;;;;;;27.10;12.52;;;;;;;;;;5071163;28;20031;-68
2022/03/07 13:21:24;;;;;;;41.17;19.83;;;;;;;;;;5071667;28;20079;-67
2022/03/07 13:23:50;;;;;;;39.97;18.48;;;;;;;;;;5071450;28;20021;-67
2022/03/07 13:26:21;;;;;;;19.23;7.72;;;;;;;;;;5071703;28;20103;-67
2022/03/07 13:28:47;;;;;;;23.20;11.05;;;;;;;;;;5071717;28;20433;-67
2022/03/07 13:31:14;;;;;;;15.05;6.47;;;;;;;;;;5071513;28;20090;-68
2022/03/07 13:33:41;;;;;;;22.67;11.65;;;;;;;;;;5071493;28;20437;-65
2022/03/07 13:36:13;;;;;;;15.18;7.50;;;;;;;;;;5071418;28;20100;-65
2022/03/07 13:38:40;;;;;;;12.60;5.65;;;;;;;;;;5071595;28;20386;-66
2022/03/07 13:41:07;;;;;;;13.98;7.35;;;;;;;;;;5071451;28;20063;-67
2022/03/07 13:43:34;;;;;;;20.92;9.63;;;;;;;;;;5071654;28;20021;-68
2022/03/07 13:46:00;;;;;;;23.85;11.27;;;;;;;;;;5071387;28;20028;-67
2022/03/07 13:48:27;;;;;;;16.85;8.27;;;;;;;;;;5071223;28;20490;-67
2022/03/07 13:50:53;;;;;;;13.63;7.38;;;;;;;;;;5071017;28;20478;-67
2022/03/07 13:53:20;;;;;;;20.13;10.10;;;;;;;;;;5071300;28;20074;-67
2022/03/07 13:55:50;;;;;;;39.20;16.80;;;;;;;;;;5071345;28;20027;-66
2022/03/07 13:58:21;;;;;;;20.95;8.65;;;;;;;;;;5071077;28;20478;-70
2022/03/07 14:00:47;;;;;;;19.73;8.98;;;;;;;;;;5071570;28;20573;-67
2022/03/07 14:03:15;;;;;;;18.17;9.40;;;;;;;;;;5070934;28;20067;-67
2022/03/07 14:05:40;;;;;;;12.15;5.68;;;;;;;;;;5071256;28;20032;-68
2022/03/07 14:08:06;;;;;;;9.70;4.57;;;;;;;;;;5070794;28;20032;-69
2022/03/07 14:10:32;;;;;;;12.52;6.40;;;;;;;;;;5070406;28;20028;-69
2022/03/07 14:13:00;;;;;;;17.52;7.65;;;;;;;;;;5075123;28;20025;-67
2022/03/07 14:15:28;;;;;;;12.93;6.72;;;;;;;;;;5074723;28;20052;-67
2022/03/07 14:18:00;;;;;;;16.52;7.57;;;;;;;;;;5073033;28;20067;-67
2022/03/07 14:20:26;;;;;;;16.75;8.15;;;;;;;;;;5074450;28;20028;-67
2022/03/07 14:22:52;;;;;;;13.15;6.70;;;;;;;;;;5074545;28;20029;-68
2022/03/07 14:25:18;;;;;;;13.40;5.38;;;;;;;;;;5074566;28;20440;-67